createdAt,value
2023-04-09T00:01:15.559Z,90.98
2023-04-09T00:03:48.674Z,90.00
2023-04-09T00:06:21.950Z,87.09
2023-04-09T00:08:54.982Z,90.92
2023-04-09T00:11:27.929Z,90.90
2023-04-09T00:14:03.064Z,91.23
2023-04-09T00:16:37.010Z,91.93
2023-04-09T00:19:10.188Z,92.23
2023-04-09T00:21:43.382Z,92.76
2023-04-09T00:24:16.722Z,89.73
2023-04-09T00:26:49.818Z,94.15
2023-04-09T00:29:24.076Z,92.50
2023-04-09T00:31:57.134Z,90.02
2023-04-09T00:34:30.514Z,91.90
2023-04-09T00:37:03.810Z,93.97
2023-04-09T00:39:36.764Z,94.50
2023-04-09T00:42:09.730Z,93.32
2023-04-09T00:44:44.100Z,93.23
2023-04-09T00:47:17.212Z,93.15
2023-04-09T00:49:50.721Z,94.47
2023-04-09T00:52:24.154Z,92.22
2023-04-09T00:54:58.069Z,90.47
2023-04-09T00:57:31.335Z,90.01
2023-04-09T01:00:07.857Z,91.21
2023-04-09T01:02:41.721Z,89.48
2023-04-09T01:05:15.876Z,88.09
2023-04-09T01:07:56.232Z,90.26
2023-04-09T01:10:32.844Z,93.69
2023-04-09T01:13:09.917Z,93.20
2023-04-09T01:15:48.052Z,92.52
2023-04-09T01:18:24.589Z,94.20
2023-04-09T01:20:59.539Z,95.08
2023-04-09T01:23:36.509Z,93.86
2023-04-09T01:26:19.446Z,95.48
2023-04-09T01:28:55.040Z,96.04
2023-04-09T01:31:30.937Z,94.31
2023-04-09T01:34:04.849Z,95.41
2023-04-09T01:36:37.952Z,91.66
2023-04-09T01:39:11.529Z,91.69
2023-04-09T01:41:45.266Z,91.13
2023-04-09T01:44:20.676Z,89.60
2023-04-09T01:46:55.529Z,93.39
2023-04-09T01:49:29.191Z,95.25
2023-04-09T01:52:02.177Z,92.77
2023-04-09T01:54:35.158Z,93.17
2023-04-09T01:57:08.028Z,96.07
2023-04-09T01:59:42.566Z,94.72
2023-04-09T02:02:19.215Z,94.75
2023-04-09T02:04:54.785Z,94.85
2023-04-09T02:07:33.987Z,91.62
2023-04-09T02:10:07.973Z,90.05
2023-04-09T02:12:44.063Z,91.44
2023-04-09T02:15:20.180Z,93.36
2023-04-09T02:17:53.860Z,93.75
2023-04-09T02:20:27.094Z,96.24
2023-04-09T02:23:00.470Z,96.57
2023-04-09T02:25:33.812Z,93.14
2023-04-09T02:28:07.074Z,92.23
2023-04-09T02:30:41.431Z,92.87
2023-04-09T02:33:14.406Z,94.61
2023-04-09T02:35:47.437Z,92.94
2023-04-09T02:38:20.808Z,93.58
2023-04-09T02:40:54.026Z,95.19
2023-04-09T02:43:27.220Z,95.41
2023-04-09T02:46:01.680Z,95.92
2023-04-09T02:48:35.018Z,95.43
2023-04-09T02:51:08.327Z,96.10
2023-04-09T02:53:41.320Z,96.19
2023-04-09T02:56:14.396Z,94.58
2023-04-09T02:58:49.600Z,96.76
2023-04-09T03:01:24.303Z,97.28
2023-04-09T03:03:57.672Z,97.53
2023-04-09T03:06:30.823Z,96.64
2023-04-09T03:09:03.952Z,97.82
2023-04-09T03:11:37.056Z,97.82
2023-04-09T03:14:11.247Z,98.15
2023-04-09T03:16:46.430Z,97.17
2023-04-09T03:19:19.512Z,96.03
2023-04-09T03:21:52.764Z,98.27
2023-04-09T03:24:26.038Z,96.87
2023-04-09T03:27:01.569Z,98.99
2023-04-09T03:29:34.815Z,100.00
2023-04-09T03:32:09.210Z,100.00
2023-04-09T03:34:42.376Z,100.00
2023-04-09T03:37:15.652Z,100.00
2023-04-09T03:39:48.799Z,100.00
2023-04-09T03:42:22.170Z,100.00
2023-04-09T03:44:55.404Z,100.00
2023-04-09T03:47:29.791Z,100.00
2023-04-09T03:50:02.835Z,100.00
2023-04-09T03:52:36.066Z,100.00
2023-04-09T03:55:09.992Z,100.00
2023-04-09T03:57:43.285Z,100.00
2023-04-09T04:00:16.607Z,100.00
2023-04-09T04:02:51.369Z,100.00
2023-04-09T04:05:25.675Z,100.00
2023-04-09T04:07:58.717Z,100.00
2023-04-09T04:10:31.700Z,100.00
2023-04-09T04:13:08.380Z,100.00
2023-04-09T04:15:42.531Z,100.00
2023-04-09T04:18:17.322Z,100.00
2023-04-09T04:20:50.696Z,100.00
2023-04-09T04:23:23.852Z,100.00
2023-04-09T04:25:58.163Z,100.00
2023-04-09T04:28:31.388Z,100.00
2023-04-09T04:31:08.403Z,100.00
2023-04-09T04:33:43.602Z,100.00
2023-04-09T04:36:16.670Z,100.00
2023-04-09T04:38:50.082Z,100.00
2023-04-09T04:41:23.811Z,100.00
2023-04-09T04:43:57.353Z,100.00
2023-04-09T04:46:30.943Z,100.00
2023-04-09T04:49:05.340Z,100.00
2023-04-09T04:51:38.565Z,100.00
2023-04-09T04:54:11.794Z,100.00
2023-04-09T04:56:45.109Z,100.00
2023-04-09T04:59:18.237Z,100.00
2023-04-09T05:01:51.345Z,100.00
2023-04-09T05:04:25.942Z,100.00
2023-04-09T05:06:59.524Z,100.00
2023-04-09T05:09:32.897Z,100.00
2023-04-09T05:12:06.800Z,100.00
2023-04-09T05:14:40.855Z,100.00
2023-04-09T05:17:14.390Z,100.00
2023-04-09T05:19:53.491Z,100.00
2023-04-09T05:22:27.245Z,100.00
2023-04-09T05:25:00.411Z,100.00
2023-04-09T05:27:33.304Z,100.00
2023-04-09T05:30:07.629Z,100.00
2023-04-09T05:32:41.120Z,99.17
2023-04-09T05:35:15.544Z,98.27
2023-04-09T05:37:49.195Z,100.00
2023-04-09T05:40:22.215Z,100.00
2023-04-09T05:42:55.203Z,100.00
2023-04-09T05:45:28.704Z,100.00
2023-04-09T05:48:01.810Z,99.75
2023-04-09T05:50:47.483Z,100.00
2023-04-09T05:53:27.452Z,100.00
2023-04-09T05:56:00.991Z,100.00
2023-04-09T05:58:34.071Z,99.24
2023-04-09T06:01:07.396Z,100.00
2023-04-09T06:03:41.105Z,100.00
2023-04-09T06:06:15.633Z,100.00
2023-04-09T06:08:48.732Z,100.00
2023-04-09T06:11:23.048Z,100.00
2023-04-09T06:13:56.739Z,100.00
2023-04-09T06:16:30.290Z,100.00
2023-04-09T06:19:04.808Z,98.86
2023-04-09T06:21:40.742Z,100.00
2023-04-09T06:24:13.756Z,100.00
2023-04-09T06:26:47.255Z,97.47
2023-04-09T06:29:21.163Z,97.53
2023-04-09T06:31:55.731Z,99.46
2023-04-09T06:34:28.768Z,100.00
2023-04-09T06:37:03.765Z,99.34
2023-04-09T06:39:38.723Z,99.39
2023-04-09T06:42:13.724Z,100.00
2023-04-09T06:44:47.526Z,100.00
2023-04-09T06:47:20.782Z,100.00
2023-04-09T06:49:53.757Z,100.00
2023-04-09T06:52:28.318Z,99.90
2023-04-09T06:55:01.456Z,98.37
2023-04-09T06:57:34.645Z,98.70
2023-04-09T07:00:08.450Z,100.00
2023-04-09T07:02:42.017Z,99.45
2023-04-09T07:05:15.471Z,99.69
2023-04-09T07:07:50.339Z,96.40
2023-04-09T07:10:23.486Z,98.47
2023-04-09T07:12:57.714Z,98.71
2023-04-09T07:15:31.236Z,99.63
2023-04-09T07:18:04.197Z,99.04
2023-04-09T07:20:37.300Z,98.55
2023-04-09T07:23:12.186Z,97.32
2023-04-09T07:25:45.331Z,97.79
2023-04-09T07:28:18.507Z,94.80
2023-04-09T07:30:51.637Z,96.76
2023-04-09T07:33:24.940Z,97.21
2023-04-09T07:35:58.217Z,96.53
2023-04-09T07:38:33.289Z,94.26
2023-04-09T07:41:06.392Z,95.19
2023-04-09T07:43:40.286Z,93.74
2023-04-09T07:46:19.243Z,93.55
2023-04-09T07:48:52.614Z,91.04
2023-04-09T07:51:26.166Z,91.80
2023-04-09T07:54:00.444Z,90.87
2023-04-09T07:56:33.811Z,91.21
2023-04-09T07:59:07.234Z,90.91
2023-04-09T08:01:40.232Z,89.33
2023-04-09T08:04:14.491Z,89.40
2023-04-09T08:06:50.807Z,90.13
2023-04-09T08:09:25.729Z,89.40
2023-04-09T08:12:01.168Z,86.82
2023-04-09T08:14:34.401Z,86.71
2023-04-09T08:17:07.426Z,85.06
2023-04-09T08:19:42.023Z,85.17
2023-04-09T08:22:15.720Z,85.68
2023-04-09T08:24:53.913Z,85.84
2023-04-09T08:27:27.239Z,85.27
2023-04-09T08:30:00.160Z,83.95
2023-04-09T08:32:33.187Z,82.25
2023-04-09T08:35:09.168Z,80.38
2023-04-09T08:37:42.337Z,79.46
2023-04-09T08:40:17.250Z,80.48
2023-04-09T08:42:53.311Z,80.03
2023-04-09T08:45:26.548Z,79.10
2023-04-09T08:48:00.041Z,80.28
2023-04-09T08:50:34.851Z,77.83
2023-04-09T08:53:09.501Z,79.36
2023-04-09T08:55:46.394Z,77.67
2023-04-09T08:58:19.416Z,77.55
2023-04-09T09:00:52.855Z,76.75
2023-04-09T09:03:26.014Z,77.06
2023-04-09T09:05:59.772Z,80.10
2023-04-09T09:08:33.085Z,78.98
2023-04-09T09:11:08.701Z,80.59
2023-04-09T09:13:42.524Z,80.25
2023-04-09T09:16:16.393Z,81.50
2023-04-09T09:18:50.570Z,80.15
2023-04-09T09:21:24.782Z,79.93
2023-04-09T09:23:58.223Z,78.57
2023-04-09T09:26:32.574Z,78.18
2023-04-09T09:29:05.958Z,78.33
2023-04-09T09:31:47.322Z,77.41
2023-04-09T09:34:21.459Z,77.93
2023-04-09T09:36:54.577Z,77.65
2023-04-09T09:39:43.718Z,77.22
2023-04-09T09:42:19.518Z,76.29
2023-04-09T09:44:52.755Z,75.29
2023-04-09T09:47:27.976Z,75.09
2023-04-09T09:50:01.272Z,74.60
2023-04-09T09:52:35.356Z,73.73
2023-04-09T09:55:09.376Z,72.96
2023-04-09T09:57:45.581Z,73.03
2023-04-09T10:00:19.464Z,74.40
2023-04-09T10:02:55.740Z,72.52
2023-04-09T10:05:30.046Z,72.77
2023-04-09T10:08:04.572Z,72.81
2023-04-09T10:10:38.338Z,72.17
2023-04-09T10:13:17.231Z,72.27
2023-04-09T10:15:51.228Z,71.35
2023-04-09T10:18:24.709Z,69.39
2023-04-09T10:20:59.887Z,68.96
2023-04-09T10:23:35.148Z,69.81
2023-04-09T10:26:08.273Z,68.99
2023-04-09T10:28:42.573Z,67.59
2023-04-09T10:31:15.851Z,66.67
2023-04-09T10:33:51.539Z,67.95
2023-04-09T10:36:27.898Z,68.14
2023-04-09T10:39:00.838Z,66.41
2023-04-09T10:41:35.202Z,62.86
2023-04-09T10:44:20.664Z,62.27
2023-04-09T10:46:54.256Z,62.21
2023-04-09T10:49:28.111Z,61.46
2023-04-09T10:52:03.049Z,61.50
2023-04-09T10:54:49.532Z,61.85
2023-04-09T10:57:23.096Z,63.34
2023-04-09T10:59:57.338Z,61.45
2023-04-09T11:02:46.538Z,60.15
2023-04-09T11:05:21.175Z,60.55
2023-04-09T11:07:55.861Z,59.98
2023-04-09T11:10:29.356Z,60.61
2023-04-09T11:13:03.581Z,61.21
2023-04-09T11:15:38.772Z,58.54
2023-04-09T11:18:15.627Z,59.60
2023-04-09T11:20:48.818Z,59.21
2023-04-09T11:23:21.792Z,59.98
2023-04-09T11:25:55.317Z,58.91
2023-04-09T11:28:28.763Z,59.77
2023-04-09T11:31:05.903Z,60.00
2023-04-09T11:33:39.139Z,58.58
2023-04-09T11:36:12.208Z,59.51
2023-04-09T11:38:45.130Z,59.21
2023-04-09T11:41:18.649Z,61.98
2023-04-09T11:43:53.018Z,58.70
2023-04-09T11:46:27.837Z,58.15
2023-04-09T11:49:01.166Z,57.74
2023-04-09T11:51:35.612Z,58.42
2023-04-09T11:54:09.018Z,58.71
2023-04-09T11:56:43.033Z,58.63
2023-04-09T11:59:16.424Z,59.28
2023-04-09T12:01:52.282Z,59.12
2023-04-09T12:04:25.538Z,57.78
2023-04-09T12:06:59.663Z,57.93
2023-04-09T12:09:32.806Z,58.79
2023-04-09T12:12:11.259Z,57.72
2023-04-09T12:14:46.854Z,57.69
2023-04-09T12:17:23.221Z,56.57
2023-04-09T12:19:56.638Z,55.01
2023-04-09T12:22:29.989Z,55.79
2023-04-09T12:25:03.081Z,56.52
2023-04-09T12:27:36.430Z,56.47
2023-04-09T12:30:11.127Z,57.04
2023-04-09T12:32:46.991Z,55.91
2023-04-09T12:35:20.079Z,55.13
2023-04-09T12:37:53.451Z,56.42
2023-04-09T12:40:26.515Z,55.71
2023-04-09T12:42:59.455Z,55.90
2023-04-09T12:45:33.021Z,56.09
2023-04-09T12:48:07.788Z,55.64
2023-04-09T12:50:41.026Z,58.28
2023-04-09T12:53:14.244Z,56.25
2023-04-09T12:55:47.373Z,54.80
2023-04-09T12:58:20.529Z,54.93
2023-04-09T13:00:54.574Z,53.83
2023-04-09T13:03:29.182Z,53.74
2023-04-09T13:06:02.121Z,58.11
2023-04-09T13:08:35.913Z,54.38
2023-04-09T13:11:09.236Z,54.18
2023-04-09T13:13:43.675Z,56.41
2023-04-09T13:16:17.031Z,53.82
2023-04-09T13:18:52.087Z,55.02
2023-04-09T13:21:26.363Z,53.02
2023-04-09T13:23:59.558Z,52.79
2023-04-09T13:26:32.965Z,58.24
2023-04-09T13:29:06.563Z,56.65
2023-04-09T13:31:39.537Z,55.09
2023-04-09T13:34:13.841Z,52.57
2023-04-09T13:36:47.032Z,52.67
2023-04-09T13:39:20.449Z,55.61
2023-04-09T13:41:55.290Z,53.06
2023-04-09T13:44:29.117Z,55.22
2023-04-09T13:47:02.083Z,53.98
2023-04-09T13:49:36.778Z,52.71
2023-04-09T13:52:09.947Z,52.86
2023-04-09T13:54:43.270Z,56.31
2023-04-09T13:57:16.779Z,53.24
2023-04-09T13:59:49.829Z,54.36
2023-04-09T14:02:23.809Z,53.57
2023-04-09T14:04:58.431Z,54.91
2023-04-09T14:07:32.185Z,53.41
2023-04-09T14:10:06.192Z,54.88
2023-04-09T14:12:39.922Z,54.92
2023-04-09T14:15:14.629Z,53.86
2023-04-09T14:17:47.710Z,56.49
2023-04-09T14:20:24.578Z,55.42
2023-04-09T14:22:57.842Z,57.15
2023-04-09T14:25:30.992Z,53.06
2023-04-09T14:28:04.087Z,53.32
2023-04-09T14:30:37.144Z,55.38
2023-04-09T14:33:10.110Z,56.66
2023-04-09T14:35:44.618Z,52.73
2023-04-09T14:38:19.132Z,52.93
2023-04-09T14:40:53.523Z,55.13
2023-04-09T14:43:27.309Z,54.26
2023-04-09T14:46:00.510Z,53.30
2023-04-09T14:48:34.304Z,56.99
2023-04-09T14:51:10.102Z,56.32
2023-04-09T14:53:43.154Z,53.94
2023-04-09T14:56:16.211Z,55.46
2023-04-09T14:58:49.368Z,54.84
2023-04-09T15:01:22.766Z,53.46
2023-04-09T15:03:56.194Z,54.94
2023-04-09T15:06:33.010Z,52.96
2023-04-09T15:09:06.058Z,55.50
2023-04-09T15:11:38.992Z,54.14
2023-04-09T15:14:12.470Z,57.83
2023-04-09T15:16:47.459Z,55.44
2023-04-09T15:19:21.017Z,54.66
2023-04-09T15:21:56.361Z,55.32
2023-04-09T15:24:29.531Z,54.31
2023-04-09T15:27:02.755Z,56.01
2023-04-09T15:29:36.352Z,54.05
2023-04-09T15:32:09.314Z,54.28
2023-04-09T15:34:42.612Z,56.03
2023-04-09T15:37:17.261Z,56.41
2023-04-09T15:39:50.601Z,58.82
2023-04-09T15:42:23.772Z,54.82
2023-04-09T15:44:56.833Z,58.03
2023-04-09T15:47:31.220Z,54.61
2023-04-09T15:50:06.936Z,53.99
2023-04-09T15:52:42.959Z,54.77
2023-04-09T15:55:16.082Z,56.68
2023-04-09T15:57:49.019Z,55.05
2023-04-09T16:00:24.216Z,54.92
2023-04-09T16:02:57.353Z,54.97
2023-04-09T16:05:30.662Z,56.78
2023-04-09T16:08:05.209Z,53.84
2023-04-09T16:10:38.408Z,57.87
2023-04-09T16:13:12.227Z,56.80
2023-04-09T16:15:46.797Z,57.66
2023-04-09T16:18:20.230Z,54.75
2023-04-09T16:20:53.806Z,53.69
2023-04-09T16:23:30.591Z,55.54
2023-04-09T16:26:14.108Z,53.57
2023-04-09T16:28:47.353Z,57.26
2023-04-09T16:31:20.669Z,55.15
2023-04-09T16:33:54.336Z,54.06
2023-04-09T16:39:19.298Z,58.45
2023-04-09T16:41:52.508Z,60.10
2023-04-09T16:44:25.496Z,54.43
2023-04-09T16:46:58.722Z,58.48
2023-04-09T16:49:32.244Z,54.78
2023-04-09T16:52:05.283Z,55.22
2023-04-09T16:54:39.986Z,58.74
2023-04-09T16:57:13.018Z,55.85
2023-04-09T16:59:46.198Z,58.58
2023-04-09T17:02:22.095Z,56.85
2023-04-09T17:04:55.070Z,56.16
2023-04-09T17:07:31.562Z,56.16
2023-04-09T17:10:07.168Z,56.66
2023-04-09T17:12:40.691Z,57.82
2023-04-09T17:15:14.241Z,59.88
2023-04-09T17:17:49.546Z,58.49
2023-04-09T17:20:24.927Z,57.04
2023-04-09T17:22:58.147Z,56.89
2023-04-09T17:25:33.105Z,57.07
2023-04-09T17:28:06.126Z,60.67
2023-04-09T17:30:39.189Z,56.93
2023-04-09T17:33:12.413Z,60.12
2023-04-09T17:35:46.052Z,60.07
2023-04-09T17:38:21.435Z,60.63
2023-04-09T17:41:07.764Z,56.40
2023-04-09T17:43:41.315Z,56.36
2023-04-09T17:46:14.920Z,60.00
2023-04-09T17:48:48.018Z,56.51
2023-04-09T17:51:21.196Z,61.66
2023-04-09T17:53:54.686Z,59.13
2023-04-09T17:56:29.067Z,58.83
2023-04-09T17:59:02.234Z,56.97
2023-04-09T18:01:35.845Z,57.33
2023-04-09T18:04:09.507Z,57.98
2023-04-09T18:06:42.754Z,56.33
2023-04-09T18:09:16.016Z,56.21
2023-04-09T18:11:56.323Z,59.24
2023-04-09T18:14:32.338Z,56.21
2023-04-09T18:17:05.614Z,58.02
2023-04-09T18:19:38.813Z,58.37
2023-04-09T18:22:12.002Z,57.07
2023-04-09T18:24:45.286Z,57.16
2023-04-09T18:27:20.438Z,56.75
2023-04-09T18:29:53.776Z,56.53
2023-04-09T18:32:26.965Z,55.46
2023-04-09T18:34:59.976Z,55.97
2023-04-09T18:37:34.191Z,55.05
2023-04-09T18:40:07.972Z,58.15
2023-04-09T18:42:42.424Z,55.32
2023-04-09T18:45:15.855Z,58.97
2023-04-09T18:47:49.226Z,58.93
2023-04-09T18:50:22.772Z,60.01
2023-04-09T18:52:55.967Z,61.47
2023-04-09T18:55:29.028Z,60.68
2023-04-09T18:58:03.504Z,58.52
2023-04-09T19:00:36.946Z,56.19
2023-04-09T19:03:10.982Z,62.09
2023-04-09T19:05:44.493Z,57.04
2023-04-09T19:08:17.522Z,61.27
2023-04-09T19:10:53.663Z,58.82
2023-04-09T19:13:29.071Z,59.69
2023-04-09T19:16:02.583Z,57.20
2023-04-09T19:18:35.984Z,57.90
2023-04-09T19:21:09.171Z,58.51
2023-04-09T19:23:42.558Z,58.76
2023-04-09T19:26:15.917Z,58.85
2023-04-09T19:28:51.118Z,58.71
2023-04-09T19:31:24.353Z,59.44
2023-04-09T19:33:57.253Z,64.51
2023-04-09T19:36:32.056Z,58.84
2023-04-09T19:39:05.832Z,59.16
2023-04-09T19:41:38.917Z,59.35
2023-04-09T19:44:13.426Z,58.86
2023-04-09T19:46:47.707Z,62.69
2023-04-09T19:49:21.049Z,59.13
2023-04-09T19:51:54.007Z,61.95
2023-04-09T19:54:27.109Z,60.98
2023-04-09T19:57:01.527Z,58.83
2023-04-09T19:59:39.847Z,59.78
2023-04-09T20:02:12.882Z,63.91
2023-04-09T20:04:45.910Z,60.57
2023-04-09T20:07:19.070Z,58.97
2023-04-09T20:09:53.114Z,60.16
2023-04-09T20:12:29.489Z,59.56
2023-04-09T20:15:04.745Z,60.55
2023-04-09T20:17:38.650Z,59.27
2023-04-09T20:20:12.277Z,58.65
2023-04-09T20:22:47.683Z,59.34
2023-04-09T20:25:21.451Z,63.12
2023-04-09T20:27:55.443Z,62.74
2023-04-09T20:30:31.400Z,59.35
2023-04-09T20:33:04.409Z,59.87
2023-04-09T20:35:37.367Z,59.82
2023-04-09T20:38:10.400Z,64.07
2023-04-09T20:40:43.545Z,59.67
2023-04-09T20:43:16.923Z,59.96
2023-04-09T20:45:51.182Z,64.42
2023-04-09T20:48:24.208Z,60.34
2023-04-09T20:50:57.741Z,60.79
2023-04-09T20:53:30.792Z,60.69
2023-04-09T20:56:03.853Z,62.36
2023-04-09T20:58:37.292Z,61.71
2023-04-09T21:01:11.664Z,60.24
2023-04-09T21:03:45.022Z,62.46
2023-04-09T21:06:18.222Z,62.73
2023-04-09T21:08:52.386Z,61.72
2023-04-09T21:11:25.647Z,62.79
2023-04-09T21:13:59.697Z,65.75
2023-04-09T21:16:35.604Z,63.44
2023-04-09T21:19:08.788Z,62.59
2023-04-09T21:21:42.376Z,61.77
2023-04-09T21:24:16.240Z,63.98
2023-04-09T21:26:52.070Z,63.63
2023-04-09T21:29:25.749Z,62.47
2023-04-09T21:32:00.508Z,62.49
2023-04-09T21:34:33.477Z,63.87
2023-04-09T21:37:06.415Z,60.70
2023-04-09T21:39:39.553Z,62.69
2023-04-09T21:42:12.661Z,67.22
2023-04-09T21:44:45.795Z,62.02
2023-04-09T21:47:20.436Z,66.98
2023-04-09T21:49:53.498Z,63.38
2023-04-09T21:52:26.476Z,67.05
2023-04-09T21:54:59.538Z,67.01
2023-04-09T21:57:32.752Z,68.54
2023-04-09T22:00:06.382Z,63.31
2023-04-09T22:02:41.908Z,67.57
2023-04-09T22:05:15.060Z,64.37
2023-04-09T22:07:47.952Z,65.47
2023-04-09T22:10:21.042Z,66.78
2023-04-09T22:12:55.438Z,66.83
2023-04-09T22:15:29.106Z,70.47
2023-04-09T22:18:03.974Z,65.23
2023-04-09T22:20:37.232Z,70.26
2023-04-09T22:23:11.004Z,69.79
2023-04-09T22:25:44.117Z,71.13
2023-04-09T22:28:17.257Z,72.53
2023-04-09T22:30:52.993Z,69.90
2023-04-09T22:33:27.841Z,67.17
2023-04-09T22:36:00.898Z,75.03
2023-04-09T22:38:34.520Z,67.50
2023-04-09T22:41:07.787Z,65.89
2023-04-09T22:43:40.867Z,74.70
2023-04-09T22:46:13.875Z,66.53
2023-04-09T22:48:48.555Z,74.62
2023-04-09T22:51:21.482Z,75.31
2023-04-09T22:53:54.384Z,71.12
2023-04-09T22:56:27.692Z,67.41
2023-04-09T22:59:00.976Z,71.05
2023-04-09T23:01:34.135Z,66.81
2023-04-09T23:04:08.625Z,67.99
2023-04-09T23:06:41.777Z,65.97
2023-04-09T23:09:15.130Z,68.79
2023-04-09T23:11:54.265Z,73.11
2023-04-09T23:14:27.636Z,64.48
2023-04-09T23:17:01.150Z,71.58
2023-04-09T23:19:35.735Z,67.08
2023-04-09T23:22:08.677Z,74.57
2023-04-09T23:24:41.936Z,75.54
2023-04-09T23:27:15.124Z,66.68
2023-04-09T23:29:49.335Z,70.36
2023-04-09T23:32:22.975Z,69.60
2023-04-09T23:34:58.928Z,74.50
2023-04-09T23:37:32.243Z,67.12
2023-04-09T23:40:05.980Z,65.70
2023-04-09T23:42:38.989Z,65.57
2023-04-09T23:45:12.510Z,64.11
2023-04-09T23:47:46.062Z,72.59
2023-04-09T23:50:23.183Z,65.72
2023-04-09T23:52:59.851Z,69.34
2023-04-09T23:55:34.177Z,68.95
2023-04-09T23:58:07.241Z,69.55
